Alpha, Iowa
Current Conditions -  °F | °C
As of 4:55 AM on Friday 28 Nov 2014 (Local Time) from KDEH Reporting Station
Overcast Overcast  
Wind Chill:   Ceiling: 11000
Heat Index: 14°   Visibility: 10mi
Dew Point:   Wind: 10mph
Humidity: 79%   Direction: 140°SE
Pressure: 30.11"   Gusts: 18mph
Location:  43.0382°N, 92.0219°W
Report Text: KDEH 281055Z AUTO 14009G16KT 10SM OVC110 M10/M13 A3011 RMK AO2
Loading
Personal Weather Stations






























Interactive Weather Map New forecast layout! Learn more

10-Day Weather Forecast

Advertisements
Track Severe Weather on mobile